sensor_id;sensor_type;location;lat;lon;timestamp;temperature;humidity
1391;DHT22;690;51.454;7.194;2022-07-12T00:02:21;18.00;1.00
1391;DHT22;690;51.454;7.194;2022-07-12T00:04:48;18.00;1.00
1391;DHT22;690;51.454;7.194;2022-07-12T00:07:15;18.00;1.00
1391;DHT22;690;51.454;7.194;2022-07-12T00:09:42;18.00;1.00
1391;DHT22;690;51.454;7.194;2022-07-12T00:12:10;17.90;1.00
1391;DHT22;690;51.454;7.194;2022-07-12T00:14:37;17.90;1.00
1391;DHT22;690;51.454;7.194;2022-07-12T00:17:05;17.90;18.20
1391;DHT22;690;51.454;7.194;2022-07-12T00:19:32;17.80;71.40
1391;DHT22;690;51.454;7.194;2022-07-12T00:21:59;17.80;99.90
1391;DHT22;690;51.454;7.194;2022-07-12T00:24:26;17.80;99.90
1391;DHT22;690;51.454;7.194;2022-07-12T00:26:53;17.80;99.90
1391;DHT22;690;51.454;7.194;2022-07-12T00:29:20;17.70;99.90
1391;DHT22;690;51.454;7.194;2022-07-12T00:31:47;17.70;99.90
1391;DHT22;690;51.454;7.194;2022-07-12T00:34:16;17.70;99.90
1391;DHT22;690;51.454;7.194;2022-07-12T00:36:43;17.70;99.90
1391;DHT22;690;51.454;7.194;2022-07-12T00:39:10;17.60;99.90
1391;DHT22;690;51.454;7.194;2022-07-12T00:41:37;17.60;99.90
1391;DHT22;690;51.454;7.194;2022-07-12T00:44:04;17.60;99.90
1391;DHT22;690;51.454;7.194;2022-07-12T00:46:31;17.50;99.90
1391;DHT22;690;51.454;7.194;2022-07-12T00:48:58;17.50;99.90
1391;DHT22;690;51.454;7.194;2022-07-12T00:51:27;17.50;99.90
1391;DHT22;690;51.454;7.194;2022-07-12T00:53:56;17.50;99.90
1391;DHT22;690;51.454;7.194;2022-07-12T00:56:24;17.50;99.90
1391;DHT22;690;51.454;7.194;2022-07-12T00:58:51;17.40;99.90
1391;DHT22;690;51.454;7.194;2022-07-12T01:01:18;17.40;99.90
1391;DHT22;690;51.454;7.194;2022-07-12T01:03:45;17.40;99.90
1391;DHT22;690;51.454;7.194;2022-07-12T01:06:12;17.30;99.90
1391;DHT22;690;51.454;7.194;2022-07-12T01:08:41;17.30;99.90
1391;DHT22;690;51.454;7.194;2022-07-12T01:11:08;17.30;99.90
1391;DHT22;690;51.454;7.194;2022-07-12T01:13:35;17.20;1.00
1391;DHT22;690;51.454;7.194;2022-07-12T01:16:05;17.20;1.00
1391;DHT22;690;51.454;7.194;2022-07-12T01:18:33;17.20;1.00
1391;DHT22;690;51.454;7.194;2022-07-12T01:21:03;17.20;1.00
1391;DHT22;690;51.454;7.194;2022-07-12T01:23:32;17.10;1.00
1391;DHT22;690;51.454;7.194;2022-07-12T01:26:00;17.10;1.00
1391;DHT22;690;51.454;7.194;2022-07-12T01:28:30;17.10;1.00
1391;DHT22;690;51.454;7.194;2022-07-12T01:30:57;17.10;1.00
1391;DHT22;690;51.454;7.194;2022-07-12T01:33:25;17.00;1.00
1391;DHT22;690;51.454;7.194;2022-07-12T01:35:52;16.90;1.00
1391;DHT22;690;51.454;7.194;2022-07-12T01:38:19;16.90;1.00
1391;DHT22;690;51.454;7.194;2022-07-12T01:40:48;16.90;1.00
1391;DHT22;690;51.454;7.194;2022-07-12T01:43:15;16.90;1.00
1391;DHT22;690;51.454;7.194;2022-07-12T01:45:42;16.80;1.00
1391;DHT22;690;51.454;7.194;2022-07-12T01:48:09;16.80;1.00
1391;DHT22;690;51.454;7.194;2022-07-12T01:50:36;16.80;1.00
1391;DHT22;690;51.454;7.194;2022-07-12T01:53:05;16.80;1.00
1391;DHT22;690;51.454;7.194;2022-07-12T01:55:33;16.80;1.00
1391;DHT22;690;51.454;7.194;2022-07-12T01:58:03;16.80;1.00
1391;DHT22;690;51.454;7.194;2022-07-12T02:00:31;16.80;1.00
1391;DHT22;690;51.454;7.194;2022-07-12T02:02:58;16.80;1.00
1391;DHT22;690;51.454;7.194;2022-07-12T02:05:25;16.80;1.00
1391;DHT22;690;51.454;7.194;2022-07-12T02:07:53;16.90;1.00
1391;DHT22;690;51.454;7.194;2022-07-12T02:10:20;16.90;1.00
1391;DHT22;690;51.454;7.194;2022-07-12T02:12:47;16.80;1.00
1391;DHT22;690;51.454;7.194;2022-07-12T02:15:16;16.80;1.00
1391;DHT22;690;51.454;7.194;2022-07-12T02:17:43;16.80;1.00
1391;DHT22;690;51.454;7.194;2022-07-12T02:20:12;16.80;1.00
1391;DHT22;690;51.454;7.194;2022-07-12T02:22:39;16.80;1.00
1391;DHT22;690;51.454;7.194;2022-07-12T02:25:06;16.80;1.00
1391;DHT22;690;51.454;7.194;2022-07-12T02:27:33;16.70;1.00
1391;DHT22;690;51.454;7.194;2022-07-12T02:30:00;16.70;1.00
1391;DHT22;690;51.454;7.194;2022-07-12T02:32:29;16.70;1.00
1391;DHT22;690;51.454;7.194;2022-07-12T02:34:56;16.60;1.00
1391;DHT22;690;51.454;7.194;2022-07-12T02:37:23;16.60;1.00
1391;DHT22;690;51.454;7.194;2022-07-12T02:39:51;16.60;1.00
1391;DHT22;690;51.454;7.194;2022-07-12T02:42:38;16.60;1.00
1391;DHT22;690;51.454;7.194;2022-07-12T02:45:06;16.50;1.00
1391;DHT22;690;51.454;7.194;2022-07-12T02:47:37;16.50;1.00
1391;DHT22;690;51.454;7.194;2022-07-12T02:50:06;16.50;1.00
1391;DHT22;690;51.454;7.194;2022-07-12T02:52:33;16.40;1.00
1391;DHT22;690;51.454;7.194;2022-07-12T02:55:01;16.40;1.00
1391;DHT22;690;51.454;7.194;2022-07-12T02:57:28;16.40;1.00
1391;DHT22;690;51.454;7.194;2022-07-12T02:59:54;16.40;1.00
1391;DHT22;690;51.454;7.194;2022-07-12T03:02:21;16.30;1.00
1391;DHT22;690;51.454;7.194;2022-07-12T03:04:50;16.30;1.00
1391;DHT22;690;51.454;7.194;2022-07-12T03:07:17;16.30;1.00
1391;DHT22;690;51.454;7.194;2022-07-12T03:09:44;16.20;1.00
1391;DHT22;690;51.454;7.194;2022-07-12T03:12:11;16.20;1.00
1391;DHT22;690;51.454;7.194;2022-07-12T03:14:38;16.20;1.00
1391;DHT22;690;51.454;7.194;2022-07-12T03:17:05;16.20;1.00
1391;DHT22;690;51.454;7.194;2022-07-12T03:19:33;16.20;1.00
1391;DHT22;690;51.454;7.194;2022-07-12T03:22:01;16.10;1.00
1391;DHT22;690;51.454;7.194;2022-07-12T03:24:28;16.10;1.00
1391;DHT22;690;51.454;7.194;2022-07-12T03:26:55;16.10;1.00
1391;DHT22;690;51.454;7.194;2022-07-12T03:29:22;16.10;1.00
1391;DHT22;690;51.454;7.194;2022-07-12T03:31:49;16.10;1.00
1391;DHT22;690;51.454;7.194;2022-07-12T03:34:16;16.10;1.00
1391;DHT22;690;51.454;7.194;2022-07-12T03:36:43;16.10;1.00
1391;DHT22;690;51.454;7.194;2022-07-12T03:39:12;16.10;1.00
1391;DHT22;690;51.454;7.194;2022-07-12T03:41:39;16.00;1.00
1391;DHT22;690;51.454;7.194;2022-07-12T03:44:06;16.10;1.00
1391;DHT22;690;51.454;7.194;2022-07-12T03:46:33;16.10;1.00
1391;DHT22;690;51.454;7.194;2022-07-12T03:49:00;16.10;1.00
1391;DHT22;690;51.454;7.194;2022-07-12T03:51:27;16.10;1.00
1391;DHT22;690;51.454;7.194;2022-07-12T03:53:54;16.10;1.00
1391;DHT22;690;51.454;7.194;2022-07-12T03:56:25;16.10;1.00
1391;DHT22;690;51.454;7.194;2022-07-12T03:59:10;16.10;1.00
1391;DHT22;690;51.454;7.194;2022-07-12T04:01:37;16.00;1.00
1391;DHT22;690;51.454;7.194;2022-07-12T04:04:04;16.00;1.00
1391;DHT22;690;51.454;7.194;2022-07-12T04:06:31;16.00;1.00
1391;DHT22;690;51.454;7.194;2022-07-12T04:08:58;16.00;1.00
1391;DHT22;690;51.454;7.194;2022-07-12T04:11:26;16.10;1.00
1391;DHT22;690;51.454;7.194;2022-07-12T04:13:53;16.10;1.00
1391;DHT22;690;51.454;7.194;2022-07-12T04:16:21;16.10;1.00
1391;DHT22;690;51.454;7.194;2022-07-12T04:18:48;16.10;1.00
1391;DHT22;690;51.454;7.194;2022-07-12T04:21:15;16.20;1.00
1391;DHT22;690;51.454;7.194;2022-07-12T04:23:42;16.20;1.00
1391;DHT22;690;51.454;7.194;2022-07-12T04:26:09;16.30;1.00
1391;DHT22;690;51.454;7.194;2022-07-12T04:28:37;16.30;1.00
1391;DHT22;690;51.454;7.194;2022-07-12T04:31:08;16.40;1.00
1391;DHT22;690;51.454;7.194;2022-07-12T04:33:35;16.40;1.00
1391;DHT22;690;51.454;7.194;2022-07-12T04:36:03;16.50;1.00
1391;DHT22;690;51.454;7.194;2022-07-12T04:38:30;16.50;1.00
1391;DHT22;690;51.454;7.194;2022-07-12T04:40:57;16.50;1.00
1391;DHT22;690;51.454;7.194;2022-07-12T04:43:24;16.60;1.00
1391;DHT22;690;51.454;7.194;2022-07-12T04:45:52;16.70;1.00
1391;DHT22;690;51.454;7.194;2022-07-12T04:48:19;16.80;1.00
1391;DHT22;690;51.454;7.194;2022-07-12T04:50:46;16.80;1.00
1391;DHT22;690;51.454;7.194;2022-07-12T04:53:13;16.90;1.00
1391;DHT22;690;51.454;7.194;2022-07-12T04:55:40;16.90;1.00
1391;DHT22;690;51.454;7.194;2022-07-12T04:58:07;17.00;1.00
1391;DHT22;690;51.454;7.194;2022-07-12T05:00:34;17.00;1.00
1391;DHT22;690;51.454;7.194;2022-07-12T05:03:02;17.10;1.00
1391;DHT22;690;51.454;7.194;2022-07-12T05:05:29;17.10;1.00
1391;DHT22;690;51.454;7.194;2022-07-12T05:07:56;17.20;1.00
1391;DHT22;690;51.454;7.194;2022-07-12T05:10:23;17.20;1.00
1391;DHT22;690;51.454;7.194;2022-07-12T05:12:51;17.30;1.00
1391;DHT22;690;51.454;7.194;2022-07-12T05:15:18;17.40;1.00
1391;DHT22;690;51.454;7.194;2022-07-12T05:17:45;17.50;1.00
1391;DHT22;690;51.454;7.194;2022-07-12T05:20:13;17.50;1.00
1391;DHT22;690;51.454;7.194;2022-07-12T05:22:40;17.50;1.00
1391;DHT22;690;51.454;7.194;2022-07-12T05:25:08;17.60;1.00
1391;DHT22;690;51.454;7.194;2022-07-12T05:27:35;17.70;1.00
1391;DHT22;690;51.454;7.194;2022-07-12T05:30:02;17.80;1.00
1391;DHT22;690;51.454;7.194;2022-07-12T05:32:29;17.80;1.00
1391;DHT22;690;51.454;7.194;2022-07-12T05:34:56;17.90;1.00
1391;DHT22;690;51.454;7.194;2022-07-12T05:37:25;18.00;1.00
1391;DHT22;690;51.454;7.194;2022-07-12T05:39:52;18.10;1.00
1391;DHT22;690;51.454;7.194;2022-07-12T05:42:19;18.10;1.00
1391;DHT22;690;51.454;7.194;2022-07-12T05:44:46;18.20;1.00
1391;DHT22;690;51.454;7.194;2022-07-12T05:47:13;18.30;1.00
1391;DHT22;690;51.454;7.194;2022-07-12T05:49:40;18.30;1.00
1391;DHT22;690;51.454;7.194;2022-07-12T05:52:07;18.40;1.00
1391;DHT22;690;51.454;7.194;2022-07-12T05:54:53;18.50;1.00
1391;DHT22;690;51.454;7.194;2022-07-12T05:57:21;18.60;1.00
1391;DHT22;690;51.454;7.194;2022-07-12T05:59:48;18.70;1.00
1391;DHT22;690;51.454;7.194;2022-07-12T06:02:15;18.80;1.00
1391;DHT22;690;51.454;7.194;2022-07-12T06:04:42;18.90;1.00
1391;DHT22;690;51.454;7.194;2022-07-12T06:07:09;19.00;1.00
1391;DHT22;690;51.454;7.194;2022-07-12T06:09:36;19.10;1.00
1391;DHT22;690;51.454;7.194;2022-07-12T06:12:06;19.20;1.00
1391;DHT22;690;51.454;7.194;2022-07-12T06:14:33;19.30;1.00
1391;DHT22;690;51.454;7.194;2022-07-12T06:17:00;19.40;1.00
1391;DHT22;690;51.454;7.194;2022-07-12T06:19:27;19.50;1.00
1391;DHT22;690;51.454;7.194;2022-07-12T06:21:54;19.60;1.00
1391;DHT22;690;51.454;7.194;2022-07-12T06:24:21;19.60;1.00
1391;DHT22;690;51.454;7.194;2022-07-12T06:26:48;19.70;1.00
1391;DHT22;690;51.454;7.194;2022-07-12T06:29:17;19.80;1.00
1391;DHT22;690;51.454;7.194;2022-07-12T06:31:44;19.90;1.00
1391;DHT22;690;51.454;7.194;2022-07-12T06:34:10;20.00;1.00
1391;DHT22;690;51.454;7.194;2022-07-12T06:36:37;20.10;1.00
1391;DHT22;690;51.454;7.194;2022-07-12T06:39:04;20.20;1.00
1391;DHT22;690;51.454;7.194;2022-07-12T06:41:31;20.30;1.00
1391;DHT22;690;51.454;7.194;2022-07-12T06:43:58;20.40;1.00
1391;DHT22;690;51.454;7.194;2022-07-12T06:46:27;20.50;1.00
1391;DHT22;690;51.454;7.194;2022-07-12T06:48:54;20.60;1.00
1391;DHT22;690;51.454;7.194;2022-07-12T06:51:21;20.70;1.00
1391;DHT22;690;51.454;7.194;2022-07-12T06:53:48;20.70;1.00
1391;DHT22;690;51.454;7.194;2022-07-12T06:56:15;20.90;1.00
1391;DHT22;690;51.454;7.194;2022-07-12T06:58:42;21.00;99.90
1391;DHT22;690;51.454;7.194;2022-07-12T07:01:10;21.00;99.90
1391;DHT22;690;51.454;7.194;2022-07-12T07:03:38;21.10;99.90
1391;DHT22;690;51.454;7.194;2022-07-12T07:06:05;21.20;99.90
1391;DHT22;690;51.454;7.194;2022-07-12T07:08:32;21.30;46.40
1391;DHT22;690;51.454;7.194;2022-07-12T07:10:59;21.40;1.00
1391;DHT22;690;51.454;7.194;2022-07-12T07:13:26;21.40;1.00
1391;DHT22;690;51.454;7.194;2022-07-12T07:15:53;21.50;1.00
1391;DHT22;690;51.454;7.194;2022-07-12T07:18:20;21.60;99.90
1391;DHT22;690;51.454;7.194;2022-07-12T07:20:48;21.70;99.90
1391;DHT22;690;51.454;7.194;2022-07-12T07:23:16;21.70;88.90
1391;DHT22;690;51.454;7.194;2022-07-12T07:25:44;21.90;1.00
1391;DHT22;690;51.454;7.194;2022-07-12T07:28:11;22.00;1.00
1391;DHT22;690;51.454;7.194;2022-07-12T07:30:38;22.10;99.90
1391;DHT22;690;51.454;7.194;2022-07-12T07:33:19;22.10;1.00
1391;DHT22;690;51.454;7.194;2022-07-12T07:35:48;22.20;1.00
1391;DHT22;690;51.454;7.194;2022-07-12T07:38:15;22.30;99.90
1391;DHT22;690;51.454;7.194;2022-07-12T07:40:43;22.40;99.90
1391;DHT22;690;51.454;7.194;2022-07-12T07:43:10;22.50;99.90
1391;DHT22;690;51.454;7.194;2022-07-12T07:45:39;22.60;1.00
1391;DHT22;690;51.454;7.194;2022-07-12T07:48:15;22.70;1.00
1391;DHT22;690;51.454;7.194;2022-07-12T07:50:43;22.70;99.90
1391;DHT22;690;51.454;7.194;2022-07-12T07:53:11;22.90;99.90
1391;DHT22;690;51.454;7.194;2022-07-12T07:55:41;22.90;99.90
1391;DHT22;690;51.454;7.194;2022-07-12T07:58:08;22.90;99.90
1391;DHT22;690;51.454;7.194;2022-07-12T08:00:39;22.90;99.90
1391;DHT22;690;51.454;7.194;2022-07-12T08:03:26;23.00;61.40
1391;DHT22;690;51.454;7.194;2022-07-12T08:06:02;23.00;26.50
1391;DHT22;690;51.454;7.194;2022-07-12T08:09:01;23.10;1.00
1391;DHT22;690;51.454;7.194;2022-07-12T08:11:28;23.10;1.00
1391;DHT22;690;51.454;7.194;2022-07-12T08:13:55;23.20;1.00
1391;DHT22;690;51.454;7.194;2022-07-12T08:16:28;23.20;1.00
1391;DHT22;690;51.454;7.194;2022-07-12T08:19:01;23.20;1.00
1391;DHT22;690;51.454;7.194;2022-07-12T08:21:30;23.20;1.00
1391;DHT22;690;51.454;7.194;2022-07-12T08:23:57;23.20;1.00
1391;DHT22;690;51.454;7.194;2022-07-12T08:26:26;23.20;1.00
1391;DHT22;690;51.454;7.194;2022-07-12T08:28:58;23.30;1.00
1391;DHT22;690;51.454;7.194;2022-07-12T08:31:25;23.30;1.00
1391;DHT22;690;51.454;7.194;2022-07-12T08:34:23;23.40;1.00
1391;DHT22;690;51.454;7.194;2022-07-12T08:37:08;23.50;1.00
1391;DHT22;690;51.454;7.194;2022-07-12T08:39:35;23.60;1.00
1391;DHT22;690;51.454;7.194;2022-07-12T08:42:05;23.70;1.00
1391;DHT22;690;51.454;7.194;2022-07-12T08:44:34;23.80;1.00
1391;DHT22;690;51.454;7.194;2022-07-12T08:47:01;23.90;1.00
1391;DHT22;690;51.454;7.194;2022-07-12T08:49:28;24.00;1.00
1391;DHT22;690;51.454;7.194;2022-07-12T08:51:55;24.00;1.00
1391;DHT22;690;51.454;7.194;2022-07-12T08:54:22;24.10;1.00
1391;DHT22;690;51.454;7.194;2022-07-12T08:56:49;24.20;1.00
1391;DHT22;690;51.454;7.194;2022-07-12T08:59:19;24.30;1.00
1391;DHT22;690;51.454;7.194;2022-07-12T09:01:48;24.40;1.00
1391;DHT22;690;51.454;7.194;2022-07-12T09:04:24;24.50;1.00
1391;DHT22;690;51.454;7.194;2022-07-12T09:07:14;24.60;1.00
1391;DHT22;690;51.454;7.194;2022-07-12T09:09:47;24.60;1.00
1391;DHT22;690;51.454;7.194;2022-07-12T09:12:22;24.60;1.00
1391;DHT22;690;51.454;7.194;2022-07-12T09:14:53;24.60;1.00
1391;DHT22;690;51.454;7.194;2022-07-12T09:17:29;24.70;1.00
1391;DHT22;690;51.454;7.194;2022-07-12T09:19:56;24.80;1.00
1391;DHT22;690;51.454;7.194;2022-07-12T09:22:23;24.80;1.00
1391;DHT22;690;51.454;7.194;2022-07-12T09:24:50;24.90;1.00
1391;DHT22;690;51.454;7.194;2022-07-12T09:27:24;24.90;1.00
1391;DHT22;690;51.454;7.194;2022-07-12T09:29:53;25.00;1.00
1391;DHT22;690;51.454;7.194;2022-07-12T09:32:20;25.10;1.00
1391;DHT22;690;51.454;7.194;2022-07-12T09:35:05;25.20;1.00
1391;DHT22;690;51.454;7.194;2022-07-12T09:37:49;25.20;1.00
1391;DHT22;690;51.454;7.194;2022-07-12T09:40:16;25.30;1.00
1391;DHT22;690;51.454;7.194;2022-07-12T09:42:43;25.40;99.90
1391;DHT22;690;51.454;7.194;2022-07-12T09:45:12;25.50;99.90
1391;DHT22;690;51.454;7.194;2022-07-12T09:47:40;25.60;99.90
1391;DHT22;690;51.454;7.194;2022-07-12T09:50:09;25.70;99.90
1391;DHT22;690;51.454;7.194;2022-07-12T09:52:37;25.70;99.90
1391;DHT22;690;51.454;7.194;2022-07-12T09:55:09;25.80;99.90
1391;DHT22;690;51.454;7.194;2022-07-12T09:57:39;25.80;99.90
1391;DHT22;690;51.454;7.194;2022-07-12T10:00:08;25.80;99.90
1391;DHT22;690;51.454;7.194;2022-07-12T10:02:38;25.90;99.90
1391;DHT22;690;51.454;7.194;2022-07-12T10:05:08;26.00;99.90
1391;DHT22;690;51.454;7.194;2022-07-12T10:07:37;26.10;99.90
1391;DHT22;690;51.454;7.194;2022-07-12T10:10:05;26.20;99.90
1391;DHT22;690;51.454;7.194;2022-07-12T10:12:32;26.30;99.90
1391;DHT22;690;51.454;7.194;2022-07-12T10:15:02;26.40;99.90
1391;DHT22;690;51.454;7.194;2022-07-12T10:17:29;26.50;99.90
1391;DHT22;690;51.454;7.194;2022-07-12T10:20:18;26.60;99.90
1391;DHT22;690;51.454;7.194;2022-07-12T10:22:48;26.60;99.90
1391;DHT22;690;51.454;7.194;2022-07-12T10:25:29;26.60;99.90
1391;DHT22;690;51.454;7.194;2022-07-12T10:27:56;26.70;99.90
1391;DHT22;690;51.454;7.194;2022-07-12T10:30:24;26.70;99.90
1391;DHT22;690;51.454;7.194;2022-07-12T10:32:53;26.70;99.90
1391;DHT22;690;51.454;7.194;2022-07-12T10:35:25;26.70;99.90
1391;DHT22;690;51.454;7.194;2022-07-12T10:38:15;26.70;99.90
1391;DHT22;690;51.454;7.194;2022-07-12T10:40:44;26.70;99.90
1391;DHT22;690;51.454;7.194;2022-07-12T10:43:25;26.70;99.90
1391;DHT22;690;51.454;7.194;2022-07-12T10:46:23;26.70;99.90
1391;DHT22;690;51.454;7.194;2022-07-12T10:49:24;26.70;99.90
1391;DHT22;690;51.454;7.194;2022-07-12T10:52:16;26.70;99.90
1391;DHT22;690;51.454;7.194;2022-07-12T10:54:47;26.80;99.90
1391;DHT22;690;51.454;7.194;2022-07-12T10:57:16;26.90;99.90
1391;DHT22;690;51.454;7.194;2022-07-12T10:59:46;27.00;99.90
1391;DHT22;690;51.454;7.194;2022-07-12T11:02:18;27.10;99.90
1391;DHT22;690;51.454;7.194;2022-07-12T11:04:48;27.20;99.90
1391;DHT22;690;51.454;7.194;2022-07-12T11:07:18;27.40;99.90
1391;DHT22;690;51.454;7.194;2022-07-12T11:09:45;27.50;99.90
1391;DHT22;690;51.454;7.194;2022-07-12T11:12:15;27.60;99.90
1391;DHT22;690;51.454;7.194;2022-07-12T11:14:45;27.70;99.90
1391;DHT22;690;51.454;7.194;2022-07-12T11:17:12;27.90;99.90
1391;DHT22;690;51.454;7.194;2022-07-12T11:19:39;27.90;99.90
1391;DHT22;690;51.454;7.194;2022-07-12T11:22:06;28.00;99.90
1391;DHT22;690;51.454;7.194;2022-07-12T11:24:36;28.10;99.90
1391;DHT22;690;51.454;7.194;2022-07-12T11:27:04;28.10;99.90
1391;DHT22;690;51.454;7.194;2022-07-12T11:29:31;28.20;99.90
1391;DHT22;690;51.454;7.194;2022-07-12T11:32:06;28.20;99.90
1391;DHT22;690;51.454;7.194;2022-07-12T11:34:34;28.20;99.90
1391;DHT22;690;51.454;7.194;2022-07-12T11:37:01;28.30;99.90
1391;DHT22;690;51.454;7.194;2022-07-12T11:39:32;28.30;99.90
1391;DHT22;690;51.454;7.194;2022-07-12T11:42:02;28.40;99.90
1391;DHT22;690;51.454;7.194;2022-07-12T11:44:45;28.50;99.90
1391;DHT22;690;51.454;7.194;2022-07-12T11:47:13;28.60;99.90
1391;DHT22;690;51.454;7.194;2022-07-12T11:49:45;28.70;99.90
1391;DHT22;690;51.454;7.194;2022-07-12T11:52:13;28.80;99.90
1391;DHT22;690;51.454;7.194;2022-07-12T11:54:40;28.80;99.90
1391;DHT22;690;51.454;7.194;2022-07-12T11:57:11;28.70;99.90
1391;DHT22;690;51.454;7.194;2022-07-12T11:59:38;28.70;99.90
1391;DHT22;690;51.454;7.194;2022-07-12T12:02:06;28.70;99.90
1391;DHT22;690;51.454;7.194;2022-07-12T12:04:44;28.70;99.90
1391;DHT22;690;51.454;7.194;2022-07-12T12:07:11;28.70;99.90
1391;DHT22;690;51.454;7.194;2022-07-12T12:10:02;28.70;99.90
1391;DHT22;690;51.454;7.194;2022-07-12T12:12:48;28.70;99.90
1391;DHT22;690;51.454;7.194;2022-07-12T12:15:33;28.90;99.90
1391;DHT22;690;51.454;7.194;2022-07-12T12:18:01;29.00;99.90
1391;DHT22;690;51.454;7.194;2022-07-12T12:20:30;29.10;99.90
1391;DHT22;690;51.454;7.194;2022-07-12T12:22:58;29.20;99.90
1391;DHT22;690;51.454;7.194;2022-07-12T12:25:26;29.30;99.90
1391;DHT22;690;51.454;7.194;2022-07-12T12:27:57;29.30;99.90
1391;DHT22;690;51.454;7.194;2022-07-12T12:30:25;29.40;99.90
1391;DHT22;690;51.454;7.194;2022-07-12T12:32:53;29.50;99.90
1391;DHT22;690;51.454;7.194;2022-07-12T12:35:22;29.50;99.90
1391;DHT22;690;51.454;7.194;2022-07-12T12:37:54;29.60;99.90
1391;DHT22;690;51.454;7.194;2022-07-12T12:40:23;29.60;99.90
1391;DHT22;690;51.454;7.194;2022-07-12T12:42:51;29.60;99.90
1391;DHT22;690;51.454;7.194;2022-07-12T12:45:22;29.60;99.90
1391;DHT22;690;51.454;7.194;2022-07-12T12:47:53;29.70;99.90
1391;DHT22;690;51.454;7.194;2022-07-12T12:50:43;29.70;99.90
1391;DHT22;690;51.454;7.194;2022-07-12T12:53:11;29.90;99.90
1391;DHT22;690;51.454;7.194;2022-07-12T12:55:39;29.90;99.90
1391;DHT22;690;51.454;7.194;2022-07-12T12:58:06;30.00;99.90
1391;DHT22;690;51.454;7.194;2022-07-12T13:00:37;30.00;99.90
1391;DHT22;690;51.454;7.194;2022-07-12T13:03:08;30.10;99.90
1391;DHT22;690;51.454;7.194;2022-07-12T13:05:35;30.10;99.90
1391;DHT22;690;51.454;7.194;2022-07-12T13:08:03;30.20;99.90
1391;DHT22;690;51.454;7.194;2022-07-12T13:10:31;30.30;99.90
1391;DHT22;690;51.454;7.194;2022-07-12T13:12:59;30.50;99.90
1391;DHT22;690;51.454;7.194;2022-07-12T13:15:26;30.60;99.90
1391;DHT22;690;51.454;7.194;2022-07-12T13:17:55;30.60;99.90
1391;DHT22;690;51.454;7.194;2022-07-12T13:20:23;30.60;99.90
1391;DHT22;690;51.454;7.194;2022-07-12T13:22:50;30.60;99.90
1391;DHT22;690;51.454;7.194;2022-07-12T13:25:17;30.60;99.90
1391;DHT22;690;51.454;7.194;2022-07-12T13:27:44;30.60;99.90
1391;DHT22;690;51.454;7.194;2022-07-12T13:30:13;30.70;99.90
1391;DHT22;690;51.454;7.194;2022-07-12T13:32:41;30.70;99.90
1391;DHT22;690;51.454;7.194;2022-07-12T13:35:11;30.80;99.90
1391;DHT22;690;51.454;7.194;2022-07-12T13:38:03;30.90;99.90
1391;DHT22;690;51.454;7.194;2022-07-12T13:40:33;30.90;99.90
1391;DHT22;690;51.454;7.194;2022-07-12T13:43:01;30.80;99.90
1391;DHT22;690;51.454;7.194;2022-07-12T13:45:29;30.80;99.90
1391;DHT22;690;51.454;7.194;2022-07-12T13:47:56;30.90;99.90
1391;DHT22;690;51.454;7.194;2022-07-12T13:50:24;31.00;99.90
1391;DHT22;690;51.454;7.194;2022-07-12T13:53:03;31.10;99.90
1391;DHT22;690;51.454;7.194;2022-07-12T13:55:34;31.10;99.90
1391;DHT22;690;51.454;7.194;2022-07-12T13:58:02;31.20;99.90
1391;DHT22;690;51.454;7.194;2022-07-12T14:00:30;31.30;99.90
1391;DHT22;690;51.454;7.194;2022-07-12T14:02:57;31.30;99.90
1391;DHT22;690;51.454;7.194;2022-07-12T14:05:26;31.30;99.90
1391;DHT22;690;51.454;7.194;2022-07-12T14:08:05;31.20;99.90
1391;DHT22;690;51.454;7.194;2022-07-12T14:10:35;31.30;99.90
1391;DHT22;690;51.454;7.194;2022-07-12T14:13:17;31.30;99.90
1391;DHT22;690;51.454;7.194;2022-07-12T14:15:59;31.40;99.90
1391;DHT22;690;51.454;7.194;2022-07-12T14:18:26;31.40;99.90
1391;DHT22;690;51.454;7.194;2022-07-12T14:20:54;31.40;99.90
1391;DHT22;690;51.454;7.194;2022-07-12T14:23:22;31.60;99.90
1391;DHT22;690;51.454;7.194;2022-07-12T14:25:49;31.70;99.90
1391;DHT22;690;51.454;7.194;2022-07-12T14:28:22;31.90;99.90
1391;DHT22;690;51.454;7.194;2022-07-12T14:31:07;31.90;99.90
1391;DHT22;690;51.454;7.194;2022-07-12T14:33:34;31.90;99.90
1391;DHT22;690;51.454;7.194;2022-07-12T14:36:03;32.00;99.90
1391;DHT22;690;51.454;7.194;2022-07-12T14:38:30;32.00;99.90
1391;DHT22;690;51.454;7.194;2022-07-12T14:40:57;32.00;99.90
1391;DHT22;690;51.454;7.194;2022-07-12T14:43:24;32.00;99.90
1391;DHT22;690;51.454;7.194;2022-07-12T14:45:51;32.10;99.90
1391;DHT22;690;51.454;7.194;2022-07-12T14:48:18;32.10;99.90
1391;DHT22;690;51.454;7.194;2022-07-12T14:50:45;32.10;99.90
1391;DHT22;690;51.454;7.194;2022-07-12T14:53:14;32.10;99.90
1391;DHT22;690;51.454;7.194;2022-07-12T14:55:42;32.20;99.90
1391;DHT22;690;51.454;7.194;2022-07-12T14:58:09;32.00;99.90
1391;DHT22;690;51.454;7.194;2022-07-12T15:00:37;32.00;99.90
1391;DHT22;690;51.454;7.194;2022-07-12T15:03:04;32.00;99.90
1391;DHT22;690;51.454;7.194;2022-07-12T15:05:31;32.00;99.90
1391;DHT22;690;51.454;7.194;2022-07-12T15:07:58;32.00;99.90
1391;DHT22;690;51.454;7.194;2022-07-12T15:10:27;31.90;99.90
1391;DHT22;690;51.454;7.194;2022-07-12T15:12:54;31.90;99.90
1391;DHT22;690;51.454;7.194;2022-07-12T15:15:21;31.90;99.90
1391;DHT22;690;51.454;7.194;2022-07-12T15:17:48;31.90;99.90
1391;DHT22;690;51.454;7.194;2022-07-12T15:20:15;31.80;99.90
1391;DHT22;690;51.454;7.194;2022-07-12T15:22:42;31.70;99.90
1391;DHT22;690;51.454;7.194;2022-07-12T15:25:09;31.70;99.90
1391;DHT22;690;51.454;7.194;2022-07-12T15:27:38;31.80;99.90
1391;DHT22;690;51.454;7.194;2022-07-12T15:30:06;31.70;99.90
1391;DHT22;690;51.454;7.194;2022-07-12T15:32:33;31.60;99.90
1391;DHT22;690;51.454;7.194;2022-07-12T15:35:00;31.50;99.90
1391;DHT22;690;51.454;7.194;2022-07-12T15:37:27;31.30;99.90
1391;DHT22;690;51.454;7.194;2022-07-12T15:39:54;31.20;99.90
1391;DHT22;690;51.454;7.194;2022-07-12T15:42:21;31.10;99.90
1391;DHT22;690;51.454;7.194;2022-07-12T15:44:49;31.10;99.90
1391;DHT22;690;51.454;7.194;2022-07-12T15:47:16;31.00;99.90
1391;DHT22;690;51.454;7.194;2022-07-12T15:49:43;31.00;99.90
1391;DHT22;690;51.454;7.194;2022-07-12T15:52:10;30.90;99.90
1391;DHT22;690;51.454;7.194;2022-07-12T15:54:54;30.90;99.90
1391;DHT22;690;51.454;7.194;2022-07-12T15:57:22;30.90;99.90
1391;DHT22;690;51.454;7.194;2022-07-12T15:59:51;31.00;99.90
1391;DHT22;690;51.454;7.194;2022-07-12T16:02:18;30.90;99.90
1391;DHT22;690;51.454;7.194;2022-07-12T16:04:45;30.90;99.90
1391;DHT22;690;51.454;7.194;2022-07-12T16:07:12;30.80;99.90
1391;DHT22;690;51.454;7.194;2022-07-12T16:09:39;30.80;99.90
1391;DHT22;690;51.454;7.194;2022-07-12T16:12:06;30.80;99.90
1391;DHT22;690;51.454;7.194;2022-07-12T16:14:33;30.70;99.90
1391;DHT22;690;51.454;7.194;2022-07-12T16:17:02;30.80;99.90
1391;DHT22;690;51.454;7.194;2022-07-12T16:19:29;30.80;99.90
1391;DHT22;690;51.454;7.194;2022-07-12T16:22:00;30.80;99.90
1391;DHT22;690;51.454;7.194;2022-07-12T16:24:28;30.90;99.90
1391;DHT22;690;51.454;7.194;2022-07-12T16:26:55;30.80;99.90
1391;DHT22;690;51.454;7.194;2022-07-12T16:29:22;30.80;99.90
1391;DHT22;690;51.454;7.194;2022-07-12T16:31:49;30.80;99.90
1391;DHT22;690;51.454;7.194;2022-07-12T16:34:27;30.80;99.90
1391;DHT22;690;51.454;7.194;2022-07-12T16:37:03;30.70;99.90
1391;DHT22;690;51.454;7.194;2022-07-12T16:39:30;30.60;99.90
1391;DHT22;690;51.454;7.194;2022-07-12T16:41:57;30.50;99.90